Aominesanmaru No.12 — JH3332 — position and weather

sailwx.info

Track history (hours):
 
Tides and Currents Weather Stations Pressure Air Temp Water Temp Dewpoint Dewpoint Depression Visibility Wind Speed Wind Dir Waves Ship Positions

Aominesanmaru No.12

Last reported at 2018-Feb-24 19:30 UTC. Time now 2018-Feb-24 19:42 UTC.
Position N 35°29' E 139°42'.

Length 60 m.

Type: Tanker. MMSI: 431008217.

Date/timePositionNaut miles runAvg speedWind from/ knotsBaromVisibWave heightAir tempDewpointWater temp
2018-Feb-24 19:30N 35°29' E 139°42'0 0.0
2018-Feb-24 18:58N 35°29' E 139°42'0 0.0
2018-Feb-24 18:31N 35°29' E 139°42'0 0.0
2018-Feb-24 18:00N 35°29' E 139°42'0 0.0
2018-Feb-24 17:31N 35°29' E 139°42'0 0.0
2018-Feb-24 16:57N 35°29' E 139°42'0 0.0
2018-Feb-24 16:31N 35°29' E 139°42'0 0.0
2018-Feb-24 15:55N 35°29' E 139°42'0 0.0
2018-Feb-24 15:28N 35°29' E 139°42'0 0.0
2018-Feb-24 14:58N 35°29' E 139°42'0 0.0
2018-Feb-24 14:31N 35°29' E 139°42'0 0.0
2018-Feb-24 14:00N 35°29' E 139°42'0 0.0
2018-Feb-24 13:31N 35°29' E 139°42'0 0.0
2018-Feb-24 12:57N 35°29' E 139°42'0 0.0
2018-Feb-24 12:30N 35°29' E 139°42'0 0.0
2018-Feb-24 11:55N 35°29' E 139°42'0 0.0
2018-Feb-24 11:31N 35°29' E 139°42'0 0.0
2018-Feb-24 10:58N 35°29' E 139°42'0 0.0
2018-Feb-24 10:13N 35°29' E 139°42'0 0.0
2018-Feb-24 10:00N 35°29' E 139°42'0 0.0
2018-Feb-24 09:31N 35°29' E 139°42'0 0.0
2018-Feb-24 08:49N 35°29' E 139°42'0 0.0
2018-Feb-24 08:30N 35°29' E 139°42'0 0.0
2018-Feb-24 08:01N 35°29' E 139°42'0 0.0
2018-Feb-24 07:18N 35°29' E 139°42'0 0.0
2018-Feb-24 07:01N 35°29' E 139°42'0 0.0
2018-Feb-24 06:22N 35°29' E 139°42'0 0.0
2018-Feb-24 06:00N 35°29' E 139°42'0 0.0
2018-Feb-24 05:28N 35°29' E 139°42'4 1.2
2018-Feb-24 02:27N 35°28' E 139°46'511.4
2018-Feb-24 02:00N 35°24' E 139°42'3 5.6
2018-Feb-24 01:26N 35°24' E 139°38'0 0.0
2018-Feb-24 00:59N 35°24' E 139°38'0 0.1
2018-Feb-24 00:29N 35°24' E 139°38'0 0.1
2018-Feb-23 23:56N 35°24' E 139°38'0 0.1
2018-Feb-23 23:26N 35°24' E 139°38'0 1.0
2018-Feb-23 22:59N 35°24' E 139°39'4 7.4
2018-Feb-23 22:30N 35°26' E 139°43'3 5.2
2018-Feb-23 21:51N 35°29' E 139°42'0 0.0
2018-Feb-23 21:21N 35°29' E 139°42'0 0.0
2018-Feb-23 20:59N 35°29' E 139°42'0 0.0
2018-Feb-23 20:29N 35°29' E 139°42'0 0.0
2018-Feb-23 19:53N 35°29' E 139°42'0 0.0
2018-Feb-23 19:29N 35°29' E 139°42'0 0.0
2018-Feb-23 18:59N 35°29' E 139°42'0 0.0
2018-Feb-23 18:26N 35°29' E 139°42'0 0.0
2018-Feb-23 17:56N 35°29' E 139°42'0 0.0
2018-Feb-23 17:29N 35°29' E 139°42'0 0.0
2018-Feb-23 16:44N 35°29' E 139°42'0 0.0
2018-Feb-23 16:23N 35°29' E 139°42'0 0.0
2018-Feb-23 15:59N 35°29' E 139°42'0 0.0
2018-Feb-23 15:29N 35°29' E 139°42'0 0.0
2018-Feb-23 14:59N 35°29' E 139°42'0 0.0
2018-Feb-23 14:23N 35°29' E 139°42'0 0.0
2018-Feb-23 13:59N 35°29' E 139°42'0 0.0
2018-Feb-23 13:29N 35°29' E 139°42'0 0.0
2018-Feb-23 12:59N 35°29' E 139°42'0 0.0
2018-Feb-23 12:26N 35°29' E 139°42'0 0.0
2018-Feb-23 11:59N 35°29' E 139°42'0 0.0
2018-Feb-23 11:26N 35°29' E 139°42'0 0.0
2018-Feb-23 10:59N 35°29' E 139°42'0 0.0
2018-Feb-23 10:26N 35°29' E 139°42'0 0.0
2018-Feb-23 09:59N 35°29' E 139°42'0 0.0
2018-Feb-23 09:14N 35°29' E 139°42'0 0.0
2018-Feb-23 08:59N 35°29' E 139°42'0 0.0
2018-Feb-23 08:29N 35°29' E 139°42'0 0.0
2018-Feb-23 07:56N 35°29' E 139°42'0 0.0
2018-Feb-23 07:29N 35°29' E 139°42'18 3.7
2018-Feb-23 02:45N 35°35' E 140°02'3 1.0
2018-Feb-22 23:26N 35°33' E 140°05'1710.1
2018-Feb-22 21:47N 35°30' E 139°45'3 8.2
2018-Feb-22 21:26N 35°29' E 139°42'0 0.1
2018-Feb-22 20:59N 35°29' E 139°42'0 0.0
2018-Feb-22 20:26N 35°29' E 139°42'0 0.0
2018-Feb-22 19:56N 35°29' E 139°42'0 0.0
2018-Feb-22 19:26N 35°29' E 139°42'0 0.0
2018-Feb-22 18:56N 35°29' E 139°42'0 0.0
2018-Feb-22 18:29N 35°29' E 139°42'0 0.0
2018-Feb-22 17:59N 35°29' E 139°42'0 0.0
2018-Feb-22 17:29N 35°29' E 139°42'0 0.0
2018-Feb-22 16:59N 35°29' E 139°42'0 0.0
2018-Feb-22 16:20N 35°29' E 139°42'0 0.0
2018-Feb-22 15:56N 35°29' E 139°42'0 0.0
2018-Feb-22 15:29N 35°29' E 139°42'0 0.0
2018-Feb-22 14:59N 35°29' E 139°42'0 0.0
2018-Feb-22 14:29N 35°29' E 139°42'0 0.0
2018-Feb-22 13:59N 35°29' E 139°42'0 0.0
2018-Feb-22 13:29N 35°29' E 139°42'0 0.0
2018-Feb-22 12:59N 35°29' E 139°42'0 0.0
2018-Feb-22 12:26N 35°29' E 139°42'0 0.0
2018-Feb-22 11:56N 35°29' E 139°42'0 0.0
2018-Feb-22 11:26N 35°29' E 139°42'0 0.0
2018-Feb-22 10:59N 35°29' E 139°42'0 0.0
2018-Feb-22 10:29N 35°29' E 139°42'0 0.0
2018-Feb-22 09:59N 35°29' E 139°42'0 0.0
2018-Feb-22 09:23N 35°29' E 139°42'0 0.0
2018-Feb-22 08:56N 35°29' E 139°42'0 0.0
2018-Feb-22 08:26N 35°29' E 139°42'0 0.0
2018-Feb-22 07:50N 35°29' E 139°42'0 0.0
2018-Feb-22 07:26N 35°29' E 139°42'0 0.0
2018-Feb-22 06:56N 35°29' E 139°42'0 0.0
2018-Feb-22 06:26N 35°29' E 139°42'1 1.4
2018-Feb-22 05:32N 35°28' E 139°40'0 0.0
2018-Feb-22 05:14N 35°28' E 139°40'0 0.0
2018-Feb-22 04:56N 35°28' E 139°40'0 0.1
2018-Feb-22 04:30N 35°28' E 139°41'3 5.6
2018-Feb-22 04:00N 35°26' E 139°43'5 0.9
2018-Feb-21 22:17N 35°30' E 139°47'412.1
2018-Feb-21 22:00N 35°29' E 139°43'1 2.4
2018-Feb-21 21:28N 35°29' E 139°42'0 0.0
2018-Feb-21 20:55N 35°29' E 139°42'0 0.0
2018-Feb-21 20:28N 35°29' E 139°42'0 0.0
2018-Feb-21 19:52N 35°29' E 139°42'0 0.0
2018-Feb-21 19:28N 35°29' E 139°42'0 0.0
2018-Feb-21 18:52N 35°29' E 139°42'0 0.0
2018-Feb-21 18:28N 35°29' E 139°42'0 0.0
2018-Feb-21 17:52N 35°29' E 139°42'0 0.0
2018-Feb-21 17:22N 35°29' E 139°42'0 0.0
2018-Feb-21 16:58N 35°29' E 139°42'0 0.0
2018-Feb-21 16:28N 35°29' E 139°42'0 0.0
2018-Feb-21 15:58N 35°29' E 139°42'0 0.0
2018-Feb-21 15:25N 35°29' E 139°42'0 0.0
2018-Feb-21 14:52N 35°29' E 139°42'0 0.0
2018-Feb-21 14:28N 35°29' E 139°42'0 0.0
2018-Feb-21 13:58N 35°29' E 139°42'0 0.0
2018-Feb-21 13:22N 35°29' E 139°42'0 0.0
2018-Feb-21 12:55N 35°29' E 139°42'0 0.0
2018-Feb-21 12:25N 35°29' E 139°42'0 0.0
2018-Feb-21 11:58N 35°29' E 139°42'0 0.0
2018-Feb-21 11:16N 35°29' E 139°42'0 0.0
2018-Feb-21 10:58N 35°29' E 139°42'0 0.0
2018-Feb-21 10:28N 35°29' E 139°42'0 0.0
2018-Feb-21 09:55N 35°29' E 139°42'0 0.0
2018-Feb-21 09:13N 35°29' E 139°42'0 0.0
2018-Feb-21 08:55N 35°29' E 139°42'0 0.0
2018-Feb-21 08:28N 35°29' E 139°42'0 0.1
2018-Feb-21 08:00N 35°29' E 139°42'2 0.2
2018-Feb-20 23:10N 35°30' E 139°44'2 6.9
2018-Feb-20 22:55N 35°29' E 139°42'0 0.0
2018-Feb-20 22:25N 35°29' E 139°42'0 0.0
2018-Feb-20 21:43N 35°29' E 139°42'0 0.0
2018-Feb-20 21:28N 35°29' E 139°42'0 0.0
2018-Feb-20 20:58N 35°29' E 139°42'0 0.0
2018-Feb-20 20:28N 35°29' E 139°42'0 0.0
2018-Feb-20 19:55N 35°29' E 139°42'0 0.0
2018-Feb-20 19:28N 35°29' E 139°42'0 0.0
2018-Feb-20 18:58N 35°29' E 139°42'0 0.0
2018-Feb-20 18:25N 35°29' E 139°42'0 0.0
2018-Feb-20 17:55N 35°29' E 139°42'0 0.0
2018-Feb-20 17:28N 35°29' E 139°42'0 0.0
2018-Feb-20 16:52N 35°29' E 139°42'0 0.0
2018-Feb-20 16:28N 35°29' E 139°42'0 0.0
2018-Feb-20 15:55N 35°29' E 139°42'0 0.0
2018-Feb-20 15:28N 35°29' E 139°42'0 0.0
2018-Feb-20 14:58N 35°29' E 139°42'0 0.0
2018-Feb-20 14:28N 35°29' E 139°42'0 0.0
2018-Feb-20 13:58N 35°29' E 139°42'0 0.0
2018-Feb-20 13:28N 35°29' E 139°42'0 0.0
2018-Feb-20 12:52N 35°29' E 139°42'0 0.0
2018-Feb-20 12:22N 35°29' E 139°42'0 0.0
2018-Feb-20 11:40N 35°29' E 139°42'0 0.0
2018-Feb-20 11:19N 35°29' E 139°42'0 0.0
2018-Feb-20 10:52N 35°29' E 139°42'0 0.0
2018-Feb-20 10:28N 35°29' E 139°42'0 0.0
2018-Feb-20 09:58N 35°29' E 139°42'0 0.0
2018-Feb-20 09:28N 35°29' E 139°42'0 0.0
2018-Feb-20 08:58N 35°29' E 139°42'0 0.0
2018-Feb-20 08:28N 35°29' E 139°42'0 0.2
2018-Feb-20 08:00N 35°29' E 139°42'5 9.6
2018-Feb-20 07:29N 35°24' E 139°42'3 5.2
2018-Feb-20 06:58N 35°24' E 139°38'0 0.0
2018-Feb-20 06:28N 35°24' E 139°38'0 0.0
2018-Feb-20 05:58N 35°24' E 139°38'0 0.0
2018-Feb-20 05:19N 35°24' E 139°38'0 0.0
2018-Feb-20 04:58N 35°24' E 139°38'0 0.0
2018-Feb-20 04:24N 35°24' E 139°38'2 5.1
2018-Feb-20 04:00N 35°24' E 139°41'5 9.8
2018-Feb-20 03:30N 35°28' E 139°42'1 1.1
2018-Feb-20 02:53N 35°29' E 139°42'0 0.0
2018-Feb-20 02:29N 35°29' E 139°42'0 0.0
2018-Feb-20 01:56N 35°29' E 139°42'0 0.0
2018-Feb-20 01:29N 35°29' E 139°42'0 0.0
2018-Feb-20 00:59N 35°29' E 139°42'0 0.0
2018-Feb-20 00:29N 35°29' E 139°42'0 0.0
2018-Feb-19 23:44N 35°29' E 139°42'0 0.0
2018-Feb-19 23:26N 35°29' E 139°42'0 0.0
2018-Feb-19 22:56N 35°29' E 139°42'0 0.0
2018-Feb-19 22:23N 35°29' E 139°42'0 0.0
2018-Feb-19 21:59N 35°29' E 139°42'0 0.0
2018-Feb-19 21:08N 35°29' E 139°42'0 0.0
2018-Feb-19 20:59N 35°29' E 139°42'0 0.0
2018-Feb-19 20:29N 35°29' E 139°42'0 0.0
2018-Feb-19 19:59N 35°29' E 139°42'0 0.0
2018-Feb-19 19:29N 35°29' E 139°42'0 0.0
2018-Feb-19 18:56N 35°29' E 139°42'0 0.0
2018-Feb-19 18:29N 35°29' E 139°42'0 0.0
2018-Feb-19 17:59N 35°29' E 139°42'0 0.0
2018-Feb-19 17:29N 35°29' E 139°42'0 0.0
2018-Feb-19 16:59N 35°29' E 139°42'0 0.0
2018-Feb-19 16:29N 35°29' E 139°42'0 0.0
2018-Feb-19 15:59N 35°29' E 139°42'0 0.0
2018-Feb-19 15:29N 35°29' E 139°42'0 0.0
2018-Feb-19 14:56N 35°29' E 139°42'0 0.0
2018-Feb-19 14:29N 35°29' E 139°42'0 0.0
2018-Feb-19 13:59N 35°29' E 139°42'0 0.0
2018-Feb-19 13:23N 35°29' E 139°42'0 0.0
2018-Feb-19 12:59N 35°29' E 139°42'0 0.0
2018-Feb-19 12:29N 35°29' E 139°42'0 0.0
2018-Feb-19 11:59N 35°29' E 139°42'0 0.0
2018-Feb-19 11:29N 35°29' E 139°42'0 0.0
2018-Feb-19 10:59N 35°29' E 139°42'0 0.0
2018-Feb-19 10:26N 35°29' E 139°42'0 0.0
2018-Feb-19 09:59N 35°29' E 139°42'0 0.0
2018-Feb-19 09:29N 35°29' E 139°42'0 0.0
2018-Feb-19 08:59N 35°29' E 139°42'0 0.0
2018-Feb-19 08:20N 35°29' E 139°42'0 0.0
2018-Feb-19 07:59N 35°29' E 139°42'0 0.0
2018-Feb-19 07:29N 35°29' E 139°42'0 0.0
2018-Feb-19 06:59N 35°29' E 139°42'0 0.0
2018-Feb-19 06:23N 35°29' E 139°42'0 0.0
2018-Feb-19 05:56N 35°29' E 139°42'0 0.0
2018-Feb-19 05:29N 35°29' E 139°42'0 0.0
2018-Feb-19 04:59N 35°29' E 139°42'0 0.0
2018-Feb-19 04:29N 35°29' E 139°42'0 0.0
2018-Feb-19 03:53N 35°29' E 139°42'0 0.0
2018-Feb-19 03:29N 35°29' E 139°42'0 0.0
2018-Feb-19 02:59N 35°29' E 139°42'0 0.0
2018-Feb-19 02:26N 35°29' E 139°42'3 6.7
2018-Feb-19 02:01N 35°26' E 139°42'4 7.1
2018-Feb-19 01:28N 35°24' E 139°38'0 0.2
2018-Feb-19 00:58N 35°24' E 139°38'0 0.0
2018-Feb-19 00:28N 35°24' E 139°38'0 0.0
2018-Feb-18 23:58N 35°24' E 139°38'0 0.0
2018-Feb-18 23:30N 35°24' E 139°38'3 5.6
2018-Feb-18 23:00N 35°24' E 139°41'610.7
2018-Feb-18 22:29N 35°29' E 139°42'0 0.1
2018-Feb-18 21:59N 35°29' E 139°42'0 0.0
2018-Feb-18 21:29N 35°29' E 139°42'0 0.0
2018-Feb-18 20:59N 35°29' E 139°42'0 0.0
2018-Feb-18 20:29N 35°29' E 139°42'0 0.0
2018-Feb-18 19:59N 35°29' E 139°42'0 0.0
2018-Feb-18 19:29N 35°29' E 139°42'0 0.0
2018-Feb-18 18:59N 35°29' E 139°42'0 0.0
2018-Feb-18 18:26N 35°29' E 139°42'0 0.0
2018-Feb-18 17:59N 35°29' E 139°42'0 0.0
2018-Feb-18 17:29N 35°29' E 139°42'0 0.0
2018-Feb-18 16:56N 35°29' E 139°42'0 0.0
2018-Feb-18 16:29N 35°29' E 139°42'0 0.0
2018-Feb-18 15:47N 35°29' E 139°42'0 0.0
2018-Feb-18 15:26N 35°29' E 139°42'0 0.0
2018-Feb-18 14:53N 35°29' E 139°42'0 0.0
2018-Feb-18 14:26N 35°29' E 139°42'0 0.0
2018-Feb-18 13:59N 35°29' E 139°42'0 0.0
2018-Feb-18 13:29N 35°29' E 139°42'0 0.0
2018-Feb-18 12:59N 35°29' E 139°42'0 0.0
2018-Feb-18 12:20N 35°29' E 139°42'0 0.0
2018-Feb-18 11:56N 35°29' E 139°42'0 0.0
2018-Feb-18 11:29N 35°29' E 139°42'0 0.0
2018-Feb-18 10:53N 35°29' E 139°42'0 0.0
2018-Feb-18 10:29N 35°29' E 139°42'0 0.0
2018-Feb-18 09:59N 35°29' E 139°42'0 0.0
2018-Feb-18 09:29N 35°29' E 139°42'0 0.0
2018-Feb-18 08:59N 35°29' E 139°42'0 0.0
2018-Feb-18 08:29N 35°29' E 139°42'0 0.0
2018-Feb-18 07:56N 35°29' E 139°42'0 0.0
2018-Feb-18 07:29N 35°29' E 139°42'0 0.0
2018-Feb-18 06:59N 35°29' E 139°42'0 0.0
2018-Feb-18 06:29N 35°29' E 139°42'0 0.0
2018-Feb-18 05:59N 35°29' E 139°42'0 0.0
2018-Feb-18 05:29N 35°29' E 139°42'0 0.0
2018-Feb-18 04:59N 35°29' E 139°42'0 0.0
2018-Feb-18 04:29N 35°29' E 139°42'0 0.0
2018-Feb-18 03:59N 35°29' E 139°42'0 0.0
2018-Feb-18 03:29N 35°29' E 139°42'0 0.0
2018-Feb-18 02:59N 35°29' E 139°42'0 0.0
2018-Feb-18 02:29N 35°29' E 139°42'0 0.0
2018-Feb-18 01:59N 35°29' E 139°42'0 0.0
2018-Feb-18 01:23N 35°29' E 139°42'0 0.0
2018-Feb-18 00:59N 35°29' E 139°42'0 0.0
2018-Feb-18 00:26N 35°29' E 139°42'0 0.0
2018-Feb-17 23:59N 35°29' E 139°42'0 0.0
2018-Feb-17 23:29N 35°29' E 139°42'0 0.0
2018-Feb-17 22:59N 35°29' E 139°42'0 0.0
2018-Feb-17 22:29N 35°29' E 139°42'0 0.0
2018-Feb-17 21:59N 35°29' E 139°42'0 0.0
2018-Feb-17 21:23N 35°29' E 139°42'0 0.0
2018-Feb-17 20:59N 35°29' E 139°42'0 0.0
2018-Feb-17 20:29N 35°29' E 139°42'0 0.0
2018-Feb-17 19:59N 35°29' E 139°42'0 0.0
2018-Feb-17 19:29N 35°29' E 139°42'0 0.0
2018-Feb-17 18:44N 35°29' E 139°42'0 0.0
2018-Feb-17 18:29N 35°29' E 139°42'0 0.0
2018-Feb-17 17:59N 35°29' E 139°42'0 0.0
2018-Feb-17 17:26N 35°29' E 139°42'0 0.0
2018-Feb-17 16:59N 35°29' E 139°42'0 0.0
2018-Feb-17 16:29N 35°29' E 139°42'0 0.0
2018-Feb-17 15:59N 35°29' E 139°42'0 0.0
2018-Feb-17 15:23N 35°29' E 139°42'0 0.0
2018-Feb-17 14:53N 35°29' E 139°42'0 0.0
2018-Feb-17 14:29N 35°29' E 139°42'0 0.0
2018-Feb-17 13:53N 35°29' E 139°42'0 0.0
2018-Feb-17 13:29N 35°29' E 139°42'0 0.0
2018-Feb-17 12:59N 35°29' E 139°42'0 0.0
2018-Feb-17 12:29N 35°29' E 139°42'0 0.0
2018-Feb-17 11:59N 35°29' E 139°42'0 0.0
2018-Feb-17 11:17N 35°29' E 139°42'0 0.0
2018-Feb-17 10:59N 35°29' E 139°42'0 0.0
2018-Feb-17 10:29N 35°29' E 139°42'0 0.0
2018-Feb-17 09:59N 35°29' E 139°42'0 0.0
2018-Feb-17 09:26N 35°29' E 139°42'0 0.0
2018-Feb-17 08:50N 35°29' E 139°42'0 0.0
2018-Feb-17 08:26N 35°29' E 139°42'0 0.0
2018-Feb-17 07:59N 35°29' E 139°42'0 0.0
2018-Feb-17 07:29N 35°29' E 139°42'0 0.0
2018-Feb-17 06:47N 35°29' E 139°42'1 3.2
2018-Feb-17 06:30N 35°29' E 139°43'3 0.7
2018-Feb-17 01:45N 35°28' E 139°46'311.3
2018-Feb-17 01:30N 35°25' E 139°44'3 6.8
2018-Feb-17 00:59N 35°24' E 139°40'0 0.0
2018-Feb-17 00:23N 35°24' E 139°40'0 0.0
2018-Feb-16 23:56N 35°24' E 139°40'0 0.0
2018-Feb-16 23:29N 35°24' E 139°40'0 0.4
2018-Feb-16 23:00N 35°24' E 139°39'2 4.1
2018-Feb-16 22:30N 35°24' E 139°42'5 8.7
2018-Feb-16 21:57N 35°29' E 139°42'0 0.1
2018-Feb-16 21:22N 35°29' E 139°42'0 0.0
2018-Feb-16 20:58N 35°29' E 139°42'0 0.0
2018-Feb-16 20:25N 35°29' E 139°42'0 0.0
2018-Feb-16 19:58N 35°29' E 139°42'0 0.0
2018-Feb-16 19:28N 35°29' E 139°42'0 0.0
2018-Feb-16 18:55N 35°29' E 139°42'0 0.0
2018-Feb-16 18:28N 35°29' E 139°42'0 0.0
2018-Feb-16 17:58N 35°29' E 139°42'0 0.0
2018-Feb-16 17:25N 35°29' E 139°42'0 0.0
2018-Feb-16 16:49N 35°29' E 139°42'0 0.0
2018-Feb-16 16:25N 35°29' E 139°42'0 0.0
2018-Feb-16 15:49N 35°29' E 139°42'0 0.0
2018-Feb-16 15:28N 35°29' E 139°42'0 0.0
2018-Feb-16 14:52N 35°29' E 139°42'0 0.0
2018-Feb-16 14:28N 35°29' E 139°42'0 0.0
2018-Feb-16 13:55N 35°29' E 139°42'0 0.0
2018-Feb-16 13:28N 35°29' E 139°42'0 0.0
2018-Feb-16 12:55N 35°29' E 139°42'0 0.0
2018-Feb-16 12:28N 35°29' E 139°42'0 0.0
2018-Feb-16 11:55N 35°29' E 139°42'0 0.0
2018-Feb-16 11:28N 35°29' E 139°42'0 0.0
2018-Feb-16 10:58N 35°29' E 139°42'0 0.0
2018-Feb-16 10:25N 35°29' E 139°42'0 0.0
2018-Feb-16 09:58N 35°29' E 139°42'0 0.0
2018-Feb-16 09:25N 35°29' E 139°42'0 0.0
2018-Feb-16 08:52N 35°29' E 139°42'0 0.0
2018-Feb-16 08:28N 35°29' E 139°42'0 0.0
2018-Feb-16 07:58N 35°29' E 139°42'0 0.0
2018-Feb-16 07:25N 35°29' E 139°42'0 0.0
2018-Feb-16 06:52N 35°29' E 139°42'2 4.5
2018-Feb-16 06:29N 35°30' E 139°43'2 0.6
2018-Feb-16 02:30N 35°28' E 139°46'611.2
2018-Feb-16 01:58N 35°23' E 139°41'3 3.9
2018-Feb-16 01:17N 35°24' E 139°38'0 0.0
2018-Feb-16 00:59N 35°24' E 139°38'0 0.1
2018-Feb-16 00:20N 35°24' E 139°38'0 0.0
2018-Feb-15 23:56N 35°24' E 139°38'0 0.0
2018-Feb-15 23:17N 35°24' E 139°38'1 1.8
2018-Feb-15 22:58N 35°24' E 139°39'3 6.9
2018-Feb-15 22:30N 35°26' E 139°42'3 6.2
2018-Feb-15 21:58N 35°29' E 139°42'0 0.0
2018-Feb-15 21:28N 35°29' E 139°42'0 0.0
2018-Feb-15 20:58N 35°29' E 139°42'0 0.0
2018-Feb-15 20:25N 35°29' E 139°42'0 0.0
2018-Feb-15 19:58N 35°29' E 139°42'0 0.0
2018-Feb-15 19:25N 35°29' E 139°42'0 0.0
2018-Feb-15 18:52N 35°29' E 139°42'0 0.0
2018-Feb-15 18:28N 35°29' E 139°42'0 0.0
2018-Feb-15 17:55N 35°29' E 139°42'0 0.0
2018-Feb-15 17:28N 35°29' E 139°42'0 0.0
2018-Feb-15 16:58N 35°29' E 139°42'0 0.0
2018-Feb-15 16:28N 35°29' E 139°42'0 0.0
2018-Feb-15 15:55N 35°29' E 139°42'0 0.0
2018-Feb-15 15:28N 35°29' E 139°42'0 0.0
2018-Feb-15 14:55N 35°29' E 139°42'0 0.0
2018-Feb-15 14:28N 35°29' E 139°42'0 0.0
2018-Feb-15 13:58N 35°29' E 139°42'0 0.0
2018-Feb-15 13:22N 35°29' E 139°42'0 0.0
2018-Feb-15 12:58N 35°29' E 139°42'0 0.0
2018-Feb-15 12:28N 35°29' E 139°42'0 0.0
2018-Feb-15 11:58N 35°29' E 139°42'0 0.0
2018-Feb-15 11:16N 35°29' E 139°42'0 0.0
2018-Feb-15 10:46N 35°29' E 139°42'0 0.0
2018-Feb-15 10:25N 35°29' E 139°42'0 0.0
2018-Feb-15 09:58N 35°29' E 139°42'0 0.0
2018-Feb-15 09:28N 35°29' E 139°42'0 0.0
2018-Feb-15 08:58N 35°29' E 139°42'0 0.0
2018-Feb-15 08:25N 35°29' E 139°42'0 0.0
2018-Feb-15 07:58N 35°29' E 139°42'0 0.0
2018-Feb-15 07:28N 35°29' E 139°42'0 0.0
2018-Feb-15 06:58N 35°29' E 139°42'3 0.4
2018-Feb-14 23:38N 35°30' E 139°45'212.1
2018-Feb-14 23:28N 35°29' E 139°42'1 1.3
2018-Feb-14 22:57N 35°29' E 139°42'0 0.0
2018-Feb-14 22:30N 35°29' E 139°42'0 0.0
2018-Feb-14 22:00N 35°29' E 139°42'0 0.0
2018-Feb-14 21:30N 35°29' E 139°42'0 0.0
2018-Feb-14 20:57N 35°29' E 139°42'0 0.0
2018-Feb-14 20:30N 35°29' E 139°42'0 0.0
2018-Feb-14 20:00N 35°29' E 139°42'  
Track history (hours):
 
Tides and Currents Weather Stations Pressure Air Temp Water Temp Dewpoint Dewpoint Depression Visibility Wind Speed Wind Dir Waves Ship Positions

Aominesanmaru No.12

Last reported at 2018-Feb-24 19:30 UTC. Time now 2018-Feb-24 19:42 UTC.
Position N 35°29' E 139°42'.

Length 60 m.

Type: Tanker. MMSI: 431008217.

Date/timePositionNaut miles runAvg speedWind from/ knotsBaromVisibWave heightAir tempDewpointWater temp
2018-Feb-24 19:30N 35°29' E 139°42'0 0.0
2018-Feb-24 18:58N 35°29' E 139°42'0 0.0
2018-Feb-24 18:31N 35°29' E 139°42'0 0.0
2018-Feb-24 18:00N 35°29' E 139°42'0 0.0
2018-Feb-24 17:31N 35°29' E 139°42'0 0.0
2018-Feb-24 16:57N 35°29' E 139°42'0 0.0
2018-Feb-24 16:31N 35°29' E 139°42'0 0.0
2018-Feb-24 15:55N 35°29' E 139°42'0 0.0
2018-Feb-24 15:28N 35°29' E 139°42'0 0.0
2018-Feb-24 14:58N 35°29' E 139°42'0 0.0
2018-Feb-24 14:31N 35°29' E 139°42'0 0.0
2018-Feb-24 14:00N 35°29' E 139°42'0 0.0
2018-Feb-24 13:31N 35°29' E 139°42'0 0.0
2018-Feb-24 12:57N 35°29' E 139°42'0 0.0
2018-Feb-24 12:30N 35°29' E 139°42'0 0.0
2018-Feb-24 11:55N 35°29' E 139°42'0 0.0
2018-Feb-24 11:31N 35°29' E 139°42'0 0.0
2018-Feb-24 10:58N 35°29' E 139°42'0 0.0
2018-Feb-24 10:13N 35°29' E 139°42'0 0.0
2018-Feb-24 10:00N 35°29' E 139°42'0 0.0
2018-Feb-24 09:31N 35°29' E 139°42'0 0.0
2018-Feb-24 08:49N 35°29' E 139°42'0 0.0
2018-Feb-24 08:30N 35°29' E 139°42'0 0.0
2018-Feb-24 08:01N 35°29' E 139°42'0 0.0
2018-Feb-24 07:18N 35°29' E 139°42'0 0.0
2018-Feb-24 07:01N 35°29' E 139°42'0 0.0
2018-Feb-24 06:22N 35°29' E 139°42'0 0.0
2018-Feb-24 06:00N 35°29' E 139°42'0 0.0
2018-Feb-24 05:28N 35°29' E 139°42'4 1.2
2018-Feb-24 02:27N 35°28' E 139°46'511.4
2018-Feb-24 02:00N 35°24' E 139°42'3 5.6
2018-Feb-24 01:26N 35°24' E 139°38'0 0.0
2018-Feb-24 00:59N 35°24' E 139°38'0 0.1
2018-Feb-24 00:29N 35°24' E 139°38'0 0.1
2018-Feb-23 23:56N 35°24' E 139°38'0 0.1
2018-Feb-23 23:26N 35°24' E 139°38'0 1.0
2018-Feb-23 22:59N 35°24' E 139°39'4 7.4
2018-Feb-23 22:30N 35°26' E 139°43'3 5.2
2018-Feb-23 21:51N 35°29' E 139°42'0 0.0
2018-Feb-23 21:21N 35°29' E 139°42'0 0.0
2018-Feb-23 20:59N 35°29' E 139°42'0 0.0
2018-Feb-23 20:29N 35°29' E 139°42'0 0.0
2018-Feb-23 19:53N 35°29' E 139°42'0 0.0
2018-Feb-23 19:29N 35°29' E 139°42'0 0.0
2018-Feb-23 18:59N 35°29' E 139°42'0 0.0
2018-Feb-23 18:26N 35°29' E 139°42'0 0.0
2018-Feb-23 17:56N 35°29' E 139°42'0 0.0
2018-Feb-23 17:29N 35°29' E 139°42'0 0.0
2018-Feb-23 16:44N 35°29' E 139°42'0 0.0
2018-Feb-23 16:23N 35°29' E 139°42'0 0.0
2018-Feb-23 15:59N 35°29' E 139°42'0 0.0
2018-Feb-23 15:29N 35°29' E 139°42'0 0.0
2018-Feb-23 14:59N 35°29' E 139°42'0 0.0
2018-Feb-23 14:23N 35°29' E 139°42'0 0.0
2018-Feb-23 13:59N 35°29' E 139°42'0 0.0
2018-Feb-23 13:29N 35°29' E 139°42'0 0.0
2018-Feb-23 12:59N 35°29' E 139°42'0 0.0
2018-Feb-23 12:26N 35°29' E 139°42'0 0.0
2018-Feb-23 11:59N 35°29' E 139°42'0 0.0
2018-Feb-23 11:26N 35°29' E 139°42'0 0.0
2018-Feb-23 10:59N 35°29' E 139°42'0 0.0
2018-Feb-23 10:26N 35°29' E 139°42'0 0.0
2018-Feb-23 09:59N 35°29' E 139°42'0 0.0
2018-Feb-23 09:14N 35°29' E 139°42'0 0.0
2018-Feb-23 08:59N 35°29' E 139°42'0 0.0
2018-Feb-23 08:29N 35°29' E 139°42'0 0.0
2018-Feb-23 07:56N 35°29' E 139°42'0 0.0
2018-Feb-23 07:29N 35°29' E 139°42'18 3.7
2018-Feb-23 02:45N 35°35' E 140°02'3 1.0
2018-Feb-22 23:26N 35°33' E 140°05'1710.1
2018-Feb-22 21:47N 35°30' E 139°45'3 8.2
2018-Feb-22 21:26N 35°29' E 139°42'0 0.1
2018-Feb-22 20:59N 35°29' E 139°42'0 0.0
2018-Feb-22 20:26N 35°29' E 139°42'0 0.0
2018-Feb-22 19:56N 35°29' E 139°42'0 0.0
2018-Feb-22 19:26N 35°29' E 139°42'0 0.0
2018-Feb-22 18:56N 35°29' E 139°42'0 0.0
2018-Feb-22 18:29N 35°29' E 139°42'0 0.0
2018-Feb-22 17:59N 35°29' E 139°42'0 0.0
2018-Feb-22 17:29N 35°29' E 139°42'0 0.0
2018-Feb-22 16:59N 35°29' E 139°42'0 0.0
2018-Feb-22 16:20N 35°29' E 139°42'0 0.0
2018-Feb-22 15:56N 35°29' E 139°42'0 0.0
2018-Feb-22 15:29N 35°29' E 139°42'0 0.0
2018-Feb-22 14:59N 35°29' E 139°42'0 0.0
2018-Feb-22 14:29N 35°29' E 139°42'0 0.0
2018-Feb-22 13:59N 35°29' E 139°42'0 0.0
2018-Feb-22 13:29N 35°29' E 139°42'0 0.0
2018-Feb-22 12:59N 35°29' E 139°42'0 0.0
2018-Feb-22 12:26N 35°29' E 139°42'0 0.0
2018-Feb-22 11:56N 35°29' E 139°42'0 0.0
2018-Feb-22 11:26N 35°29' E 139°42'0 0.0
2018-Feb-22 10:59N 35°29' E 139°42'0 0.0
2018-Feb-22 10:29N 35°29' E 139°42'0 0.0
2018-Feb-22 09:59N 35°29' E 139°42'0 0.0
2018-Feb-22 09:23N 35°29' E 139°42'0 0.0
2018-Feb-22 08:56N 35°29' E 139°42'0 0.0
2018-Feb-22 08:26N 35°29' E 139°42'0 0.0
2018-Feb-22 07:50N 35°29' E 139°42'0 0.0
2018-Feb-22 07:26N 35°29' E 139°42'0 0.0
2018-Feb-22 06:56N 35°29' E 139°42'0 0.0
2018-Feb-22 06:26N 35°29' E 139°42'1 1.4
2018-Feb-22 05:32N 35°28' E 139°40'0 0.0
2018-Feb-22 05:14N 35°28' E 139°40'0 0.0
2018-Feb-22 04:56N 35°28' E 139°40'0 0.1
2018-Feb-22 04:30N 35°28' E 139°41'3 5.6
2018-Feb-22 04:00N 35°26' E 139°43'5 0.9
2018-Feb-21 22:17N 35°30' E 139°47'412.1
2018-Feb-21 22:00N 35°29' E 139°43'1 2.4
2018-Feb-21 21:28N 35°29' E 139°42'0 0.0
2018-Feb-21 20:55N 35°29' E 139°42'0 0.0
2018-Feb-21 20:28N 35°29' E 139°42'0 0.0
2018-Feb-21 19:52N 35°29' E 139°42'0 0.0
2018-Feb-21 19:28N 35°29' E 139°42'0 0.0
2018-Feb-21 18:52N 35°29' E 139°42'0 0.0
2018-Feb-21 18:28N 35°29' E 139°42'0 0.0
2018-Feb-21 17:52N 35°29' E 139°42'0 0.0
2018-Feb-21 17:22N 35°29' E 139°42'0 0.0
2018-Feb-21 16:58N 35°29' E 139°42'0 0.0
2018-Feb-21 16:28N 35°29' E 139°42'0 0.0
2018-Feb-21 15:58N 35°29' E 139°42'0 0.0
2018-Feb-21 15:25N 35°29' E 139°42'0 0.0
2018-Feb-21 14:52N 35°29' E 139°42'0 0.0
2018-Feb-21 14:28N 35°29' E 139°42'0 0.0
2018-Feb-21 13:58N 35°29' E 139°42'0 0.0
2018-Feb-21 13:22N 35°29' E 139°42'0 0.0
2018-Feb-21 12:55N 35°29' E 139°42'0 0.0
2018-Feb-21 12:25N 35°29' E 139°42'0 0.0
2018-Feb-21 11:58N 35°29' E 139°42'0 0.0
2018-Feb-21 11:16N 35°29' E 139°42'0 0.0
2018-Feb-21 10:58N 35°29' E 139°42'0 0.0
2018-Feb-21 10:28N 35°29' E 139°42'0 0.0
2018-Feb-21 09:55N 35°29' E 139°42'0 0.0
2018-Feb-21 09:13N 35°29' E 139°42'0 0.0
2018-Feb-21 08:55N 35°29' E 139°42'0 0.0
2018-Feb-21 08:28N 35°29' E 139°42'0 0.1
2018-Feb-21 08:00N 35°29' E 139°42'2 0.2
2018-Feb-20 23:10N 35°30' E 139°44'2 6.9
2018-Feb-20 22:55N 35°29' E 139°42'0 0.0
2018-Feb-20 22:25N 35°29' E 139°42'0 0.0
2018-Feb-20 21:43N 35°29' E 139°42'0 0.0
2018-Feb-20 21:28N 35°29' E 139°42'0 0.0
2018-Feb-20 20:58N 35°29' E 139°42'0 0.0
2018-Feb-20 20:28N 35°29' E 139°42'0 0.0
2018-Feb-20 19:55N 35°29' E 139°42'0 0.0
2018-Feb-20 19:28N 35°29' E 139°42'0 0.0
2018-Feb-20 18:58N 35°29' E 139°42'0 0.0
2018-Feb-20 18:25N 35°29' E 139°42'0 0.0
2018-Feb-20 17:55N 35°29' E 139°42'0 0.0
2018-Feb-20 17:28N 35°29' E 139°42'0 0.0
2018-Feb-20 16:52N 35°29' E 139°42'0 0.0
2018-Feb-20 16:28N 35°29' E 139°42'0 0.0
2018-Feb-20 15:55N 35°29' E 139°42'0 0.0
2018-Feb-20 15:28N 35°29' E 139°42'0 0.0
2018-Feb-20 14:58N 35°29' E 139°42'0 0.0
2018-Feb-20 14:28N 35°29' E 139°42'0 0.0
2018-Feb-20 13:58N 35°29' E 139°42'0 0.0
2018-Feb-20 13:28N 35°29' E 139°42'0 0.0
2018-Feb-20 12:52N 35°29' E 139°42'0 0.0
2018-Feb-20 12:22N 35°29' E 139°42'0 0.0
2018-Feb-20 11:40N 35°29' E 139°42'0 0.0
2018-Feb-20 11:19N 35°29' E 139°42'0 0.0
2018-Feb-20 10:52N 35°29' E 139°42'0 0.0
2018-Feb-20 10:28N 35°29' E 139°42'0 0.0
2018-Feb-20 09:58N 35°29' E 139°42'0 0.0
2018-Feb-20 09:28N 35°29' E 139°42'0 0.0
2018-Feb-20 08:58N 35°29' E 139°42'0 0.0
2018-Feb-20 08:28N 35°29' E 139°42'0 0.2
2018-Feb-20 08:00N 35°29' E 139°42'5 9.6
2018-Feb-20 07:29N 35°24' E 139°42'3 5.2
2018-Feb-20 06:58N 35°24' E 139°38'0 0.0
2018-Feb-20 06:28N 35°24' E 139°38'0 0.0
2018-Feb-20 05:58N 35°24' E 139°38'0 0.0
2018-Feb-20 05:19N 35°24' E 139°38'0 0.0
2018-Feb-20 04:58N 35°24' E 139°38'0 0.0
2018-Feb-20 04:24N 35°24' E 139°38'2 5.1
2018-Feb-20 04:00N 35°24' E 139°41'5 9.8
2018-Feb-20 03:30N 35°28' E 139°42'1 1.1
2018-Feb-20 02:53N 35°29' E 139°42'0 0.0
2018-Feb-20 02:29N 35°29' E 139°42'0 0.0
2018-Feb-20 01:56N 35°29' E 139°42'0 0.0
2018-Feb-20 01:29N 35°29' E 139°42'0 0.0
2018-Feb-20 00:59N 35°29' E 139°42'0 0.0
2018-Feb-20 00:29N 35°29' E 139°42'0 0.0
2018-Feb-19 23:44N 35°29' E 139°42'0 0.0
2018-Feb-19 23:26N 35°29' E 139°42'0 0.0
2018-Feb-19 22:56N 35°29' E 139°42'0 0.0
2018-Feb-19 22:23N 35°29' E 139°42'0 0.0
2018-Feb-19 21:59N 35°29' E 139°42'0 0.0
2018-Feb-19 21:08N 35°29' E 139°42'0 0.0
2018-Feb-19 20:59N 35°29' E 139°42'0 0.0
2018-Feb-19 20:29N 35°29' E 139°42'0 0.0
2018-Feb-19 19:59N 35°29' E 139°42'0 0.0
2018-Feb-19 19:29N 35°29' E 139°42'0 0.0
2018-Feb-19 18:56N 35°29' E 139°42'0 0.0
2018-Feb-19 18:29N 35°29' E 139°42'0 0.0
2018-Feb-19 17:59N 35°29' E 139°42'0 0.0
2018-Feb-19 17:29N 35°29' E 139°42'0 0.0
2018-Feb-19 16:59N 35°29' E 139°42'0 0.0
2018-Feb-19 16:29N 35°29' E 139°42'0 0.0
2018-Feb-19 15:59N 35°29' E 139°42'0 0.0
2018-Feb-19 15:29N 35°29' E 139°42'0 0.0
2018-Feb-19 14:56N 35°29' E 139°42'0 0.0
2018-Feb-19 14:29N 35°29' E 139°42'0 0.0
2018-Feb-19 13:59N 35°29' E 139°42'0 0.0
2018-Feb-19 13:23N 35°29' E 139°42'0 0.0
2018-Feb-19 12:59N 35°29' E 139°42'0 0.0
2018-Feb-19 12:29N 35°29' E 139°42'0 0.0
2018-Feb-19 11:59N 35°29' E 139°42'0 0.0
2018-Feb-19 11:29N 35°29' E 139°42'0 0.0
2018-Feb-19 10:59N 35°29' E 139°42'0 0.0
2018-Feb-19 10:26N 35°29' E 139°42'0 0.0
2018-Feb-19 09:59N 35°29' E 139°42'0 0.0
2018-Feb-19 09:29N 35°29' E 139°42'0 0.0
2018-Feb-19 08:59N 35°29' E 139°42'0 0.0
2018-Feb-19 08:20N 35°29' E 139°42'0 0.0
2018-Feb-19 07:59N 35°29' E 139°42'0 0.0
2018-Feb-19 07:29N 35°29' E 139°42'0 0.0
2018-Feb-19 06:59N 35°29' E 139°42'0 0.0
2018-Feb-19 06:23N 35°29' E 139°42'0 0.0
2018-Feb-19 05:56N 35°29' E 139°42'0 0.0
2018-Feb-19 05:29N 35°29' E 139°42'0 0.0
2018-Feb-19 04:59N 35°29' E 139°42'0 0.0
2018-Feb-19 04:29N 35°29' E 139°42'0 0.0
2018-Feb-19 03:53N 35°29' E 139°42'0 0.0
2018-Feb-19 03:29N 35°29' E 139°42'0 0.0
2018-Feb-19 02:59N 35°29' E 139°42'0 0.0
2018-Feb-19 02:26N 35°29' E 139°42'3 6.7
2018-Feb-19 02:01N 35°26' E 139°42'4 7.1
2018-Feb-19 01:28N 35°24' E 139°38'0 0.2
2018-Feb-19 00:58N 35°24' E 139°38'0 0.0
2018-Feb-19 00:28N 35°24' E 139°38'0 0.0
2018-Feb-18 23:58N 35°24' E 139°38'0 0.0
2018-Feb-18 23:30N 35°24' E 139°38'3 5.6
2018-Feb-18 23:00N 35°24' E 139°41'610.7
2018-Feb-18 22:29N 35°29' E 139°42'0 0.1
2018-Feb-18 21:59N 35°29' E 139°42'0 0.0
2018-Feb-18 21:29N 35°29' E 139°42'0 0.0
2018-Feb-18 20:59N 35°29' E 139°42'0 0.0
2018-Feb-18 20:29N 35°29' E 139°42'0 0.0
2018-Feb-18 19:59N 35°29' E 139°42'0 0.0
2018-Feb-18 19:29N 35°29' E 139°42'0 0.0
2018-Feb-18 18:59N 35°29' E 139°42'0 0.0
2018-Feb-18 18:26N 35°29' E 139°42'0 0.0
2018-Feb-18 17:59N 35°29' E 139°42'0 0.0
2018-Feb-18 17:29N 35°29' E 139°42'0 0.0
2018-Feb-18 16:56N 35°29' E 139°42'0 0.0
2018-Feb-18 16:29N 35°29' E 139°42'0 0.0
2018-Feb-18 15:47N 35°29' E 139°42'0 0.0
2018-Feb-18 15:26N 35°29' E 139°42'0 0.0
2018-Feb-18 14:53N 35°29' E 139°42'0 0.0
2018-Feb-18 14:26N 35°29' E 139°42'0 0.0
2018-Feb-18 13:59N 35°29' E 139°42'0 0.0
2018-Feb-18 13:29N 35°29' E 139°42'0 0.0
2018-Feb-18 12:59N 35°29' E 139°42'0 0.0
2018-Feb-18 12:20N 35°29' E 139°42'0 0.0
2018-Feb-18 11:56N 35°29' E 139°42'0 0.0
2018-Feb-18 11:29N 35°29' E 139°42'0 0.0
2018-Feb-18 10:53N 35°29' E 139°42'0 0.0
2018-Feb-18 10:29N 35°29' E 139°42'0 0.0
2018-Feb-18 09:59N 35°29' E 139°42'0 0.0
2018-Feb-18 09:29N 35°29' E 139°42'0 0.0
2018-Feb-18 08:59N 35°29' E 139°42'0 0.0
2018-Feb-18 08:29N 35°29' E 139°42'0 0.0
2018-Feb-18 07:56N 35°29' E 139°42'0 0.0
2018-Feb-18 07:29N 35°29' E 139°42'0 0.0
2018-Feb-18 06:59N 35°29' E 139°42'0 0.0
2018-Feb-18 06:29N 35°29' E 139°42'0 0.0
2018-Feb-18 05:59N 35°29' E 139°42'0 0.0
2018-Feb-18 05:29N 35°29' E 139°42'0 0.0
2018-Feb-18 04:59N 35°29' E 139°42'0 0.0
2018-Feb-18 04:29N 35°29' E 139°42'0 0.0
2018-Feb-18 03:59N 35°29' E 139°42'0 0.0
2018-Feb-18 03:29N 35°29' E 139°42'0 0.0
2018-Feb-18 02:59N 35°29' E 139°42'0 0.0
2018-Feb-18 02:29N 35°29' E 139°42'0 0.0
2018-Feb-18 01:59N 35°29' E 139°42'0 0.0
2018-Feb-18 01:23N 35°29' E 139°42'0 0.0
2018-Feb-18 00:59N 35°29' E 139°42'0 0.0
2018-Feb-18 00:26N 35°29' E 139°42'0 0.0
2018-Feb-17 23:59N 35°29' E 139°42'0 0.0
2018-Feb-17 23:29N 35°29' E 139°42'0 0.0
2018-Feb-17 22:59N 35°29' E 139°42'0 0.0
2018-Feb-17 22:29N 35°29' E 139°42'0 0.0
2018-Feb-17 21:59N 35°29' E 139°42'0 0.0
2018-Feb-17 21:23N 35°29' E 139°42'0 0.0
2018-Feb-17 20:59N 35°29' E 139°42'0 0.0
2018-Feb-17 20:29N 35°29' E 139°42'0 0.0
2018-Feb-17 19:59N 35°29' E 139°42'0 0.0
2018-Feb-17 19:29N 35°29' E 139°42'0 0.0
2018-Feb-17 18:44N 35°29' E 139°42'0 0.0
2018-Feb-17 18:29N 35°29' E 139°42'0 0.0
2018-Feb-17 17:59N 35°29' E 139°42'0 0.0
2018-Feb-17 17:26N 35°29' E 139°42'0 0.0
2018-Feb-17 16:59N 35°29' E 139°42'0 0.0
2018-Feb-17 16:29N 35°29' E 139°42'0 0.0
2018-Feb-17 15:59N 35°29' E 139°42'0 0.0
2018-Feb-17 15:23N 35°29' E 139°42'0 0.0
2018-Feb-17 14:53N 35°29' E 139°42'0 0.0
2018-Feb-17 14:29N 35°29' E 139°42'0 0.0
2018-Feb-17 13:53N 35°29' E 139°42'0 0.0
2018-Feb-17 13:29N 35°29' E 139°42'0 0.0
2018-Feb-17 12:59N 35°29' E 139°42'0 0.0
2018-Feb-17 12:29N 35°29' E 139°42'0 0.0
2018-Feb-17 11:59N 35°29' E 139°42'0 0.0
2018-Feb-17 11:17N 35°29' E 139°42'0 0.0
2018-Feb-17 10:59N 35°29' E 139°42'0 0.0
2018-Feb-17 10:29N 35°29' E 139°42'0 0.0
2018-Feb-17 09:59N 35°29' E 139°42'0 0.0
2018-Feb-17 09:26N 35°29' E 139°42'0 0.0
2018-Feb-17 08:50N 35°29' E 139°42'0 0.0
2018-Feb-17 08:26N 35°29' E 139°42'0 0.0
2018-Feb-17 07:59N 35°29' E 139°42'0 0.0
2018-Feb-17 07:29N 35°29' E 139°42'0 0.0
2018-Feb-17 06:47N 35°29' E 139°42'1 3.2
2018-Feb-17 06:30N 35°29' E 139°43'3 0.7
2018-Feb-17 01:45N 35°28' E 139°46'311.3
2018-Feb-17 01:30N 35°25' E 139°44'3 6.8
2018-Feb-17 00:59N 35°24' E 139°40'0 0.0
2018-Feb-17 00:23N 35°24' E 139°40'0 0.0
2018-Feb-16 23:56N 35°24' E 139°40'0 0.0
2018-Feb-16 23:29N 35°24' E 139°40'0 0.4
2018-Feb-16 23:00N 35°24' E 139°39'2 4.1
2018-Feb-16 22:30N 35°24' E 139°42'5 8.7
2018-Feb-16 21:57N 35°29' E 139°42'0 0.1
2018-Feb-16 21:22N 35°29' E 139°42'0 0.0
2018-Feb-16 20:58N 35°29' E 139°42'0 0.0
2018-Feb-16 20:25N 35°29' E 139°42'0 0.0
2018-Feb-16 19:58N 35°29' E 139°42'0 0.0
2018-Feb-16 19:28N 35°29' E 139°42'0 0.0
2018-Feb-16 18:55N 35°29' E 139°42'0 0.0
2018-Feb-16 18:28N 35°29' E 139°42'0 0.0
2018-Feb-16 17:58N 35°29' E 139°42'0 0.0
2018-Feb-16 17:25N 35°29' E 139°42'0 0.0
2018-Feb-16 16:49N 35°29' E 139°42'0 0.0
2018-Feb-16 16:25N 35°29' E 139°42'0 0.0
2018-Feb-16 15:49N 35°29' E 139°42'0 0.0
2018-Feb-16 15:28N 35°29' E 139°42'0 0.0
2018-Feb-16 14:52N 35°29' E 139°42'0 0.0
2018-Feb-16 14:28N 35°29' E 139°42'0 0.0
2018-Feb-16 13:55N 35°29' E 139°42'0 0.0
2018-Feb-16 13:28N 35°29' E 139°42'0 0.0
2018-Feb-16 12:55N 35°29' E 139°42'0 0.0
2018-Feb-16 12:28N 35°29' E 139°42'0 0.0
2018-Feb-16 11:55N 35°29' E 139°42'0 0.0
2018-Feb-16 11:28N 35°29' E 139°42'0 0.0
2018-Feb-16 10:58N 35°29' E 139°42'0 0.0
2018-Feb-16 10:25N 35°29' E 139°42'0 0.0
2018-Feb-16 09:58N 35°29' E 139°42'0 0.0
2018-Feb-16 09:25N 35°29' E 139°42'0 0.0
2018-Feb-16 08:52N 35°29' E 139°42'0 0.0
2018-Feb-16 08:28N 35°29' E 139°42'0 0.0
2018-Feb-16 07:58N 35°29' E 139°42'0 0.0
2018-Feb-16 07:25N 35°29' E 139°42'0 0.0
2018-Feb-16 06:52N 35°29' E 139°42'2 4.5
2018-Feb-16 06:29N 35°30' E 139°43'2 0.6
2018-Feb-16 02:30N 35°28' E 139°46'611.2
2018-Feb-16 01:58N 35°23' E 139°41'3 3.9
2018-Feb-16 01:17N 35°24' E 139°38'0 0.0
2018-Feb-16 00:59N 35°24' E 139°38'0 0.1
2018-Feb-16 00:20N 35°24' E 139°38'0 0.0
2018-Feb-15 23:56N 35°24' E 139°38'0 0.0
2018-Feb-15 23:17N 35°24' E 139°38'1 1.8
2018-Feb-15 22:58N 35°24' E 139°39'3 6.9
2018-Feb-15 22:30N 35°26' E 139°42'3 6.2
2018-Feb-15 21:58N 35°29' E 139°42'0 0.0
2018-Feb-15 21:28N 35°29' E 139°42'0 0.0
2018-Feb-15 20:58N 35°29' E 139°42'0 0.0
2018-Feb-15 20:25N 35°29' E 139°42'0 0.0
2018-Feb-15 19:58N 35°29' E 139°42'0 0.0
2018-Feb-15 19:25N 35°29' E 139°42'0 0.0
2018-Feb-15 18:52N 35°29' E 139°42'0 0.0
2018-Feb-15 18:28N 35°29' E 139°42'0 0.0
2018-Feb-15 17:55N 35°29' E 139°42'0 0.0
2018-Feb-15 17:28N 35°29' E 139°42'0 0.0
2018-Feb-15 16:58N 35°29' E 139°42'0 0.0
2018-Feb-15 16:28N 35°29' E 139°42'0 0.0
2018-Feb-15 15:55N 35°29' E 139°42'0 0.0
2018-Feb-15 15:28N 35°29' E 139°42'0 0.0
2018-Feb-15 14:55N 35°29' E 139°42'0 0.0
2018-Feb-15 14:28N 35°29' E 139°42'0 0.0
2018-Feb-15 13:58N 35°29' E 139°42'0 0.0
2018-Feb-15 13:22N 35°29' E 139°42'0 0.0
2018-Feb-15 12:58N 35°29' E 139°42'0 0.0
2018-Feb-15 12:28N 35°29' E 139°42'0 0.0
2018-Feb-15 11:58N 35°29' E 139°42'0 0.0
2018-Feb-15 11:16N 35°29' E 139°42'0 0.0
2018-Feb-15 10:46N 35°29' E 139°42'0 0.0
2018-Feb-15 10:25N 35°29' E 139°42'0 0.0
2018-Feb-15 09:58N 35°29' E 139°42'0 0.0
2018-Feb-15 09:28N 35°29' E 139°42'0 0.0
2018-Feb-15 08:58N 35°29' E 139°42'0 0.0
2018-Feb-15 08:25N 35°29' E 139°42'0 0.0
2018-Feb-15 07:58N 35°29' E 139°42'0 0.0
2018-Feb-15 07:28N 35°29' E 139°42'0 0.0
2018-Feb-15 06:58N 35°29' E 139°42'3 0.4
2018-Feb-14 23:38N 35°30' E 139°45'212.1
2018-Feb-14 23:28N 35°29' E 139°42'1 1.3
2018-Feb-14 22:57N 35°29' E 139°42'0 0.0
2018-Feb-14 22:30N 35°29' E 139°42'0 0.0
2018-Feb-14 22:00N 35°29' E 139°42'0 0.0
2018-Feb-14 21:30N 35°29' E 139°42'0 0.0
2018-Feb-14 20:57N 35°29' E 139°42'0 0.0
2018-Feb-14 20:30N 35°29' E 139°42'0 0.0
2018-Feb-14 20:00N 35°29' E 139°42'  

Dump ship's entire track history